Time;durP1;ratioP1;P1;durP2;ratioP2;P2;SDS_P1;SDS_P2;PMS_P1;PMS_P2;Temp;Humidity;BMP_temperature;BMP_pressure;BME280_temperature;BME280_humidity;BME280_pressure;Samples;Min_cycle;Max_cycle;Signal;HPM_P1;HPM_P2
2023/06/08 00:00:50;;;;;;;4.55;3.40;;;;;;;16.12;95.95;99925.88;5075930;28;20044;-64
2023/06/08 00:03:18;;;;;;;5.40;3.58;;;;;;;16.13;96.12;99923.00;5072838;28;20040;-64
2023/06/08 00:05:49;;;;;;;4.47;2.83;;;;;;;16.49;94.11;99919.34;5076518;28;20245;-64
2023/06/08 00:08:15;;;;;;;4.53;3.65;;;;;;;16.75;92.30;99926.78;5074051;28;20059;-64
2023/06/08 00:10:45;;;;;;;7.18;3.63;;;;;;;16.89;91.01;99920.47;5075454;28;20634;-64
2023/06/08 00:13:11;;;;;;;4.13;3.08;;;;;;;17.14;89.51;99921.59;5075053;28;20054;-64
2023/06/08 00:15:36;;;;;;;4.25;2.92;;;;;;;17.32;87.90;99915.69;5075413;28;20100;-64
2023/06/08 00:18:02;;;;;;;4.07;3.17;;;;;;;17.34;86.81;99928.88;5074120;28;20032;-64
2023/06/08 00:20:28;;;;;;;4.07;3.22;;;;;;;17.12;88.21;99920.97;5075217;28;20039;-64
2023/06/08 00:22:56;;;;;;;4.85;3.15;;;;;;;17.01;88.35;99926.06;5075685;28;20047;-64
2023/06/08 00:25:22;;;;;;;3.47;3.05;;;;;;;17.00;88.69;99914.53;5074405;28;20021;-64
2023/06/08 00:27:47;;;;;;;5.30;3.78;;;;;;;16.87;89.27;99922.50;5070760;28;20047;-64
2023/06/08 00:30:16;;;;;;;6.55;3.92;;;;;;;16.67;90.70;99918.91;5076684;28;20040;-64
2023/06/08 00:32:41;;;;;;;4.75;3.50;;;;;;;16.37;93.00;99919.06;5077199;28;20041;-64
2023/06/08 00:35:07;;;;;;;5.70;3.58;;;;;;;16.84;91.36;99920.22;5074254;28;20041;-64
2023/06/08 00:37:35;;;;;;;5.22;3.50;;;;;;;17.10;89.03;99916.84;5070657;28;20108;-64
2023/06/08 00:40:01;;;;;;;5.13;3.70;;;;;;;17.32;88.12;99915.69;5060926;28;20345;-64
2023/06/08 00:42:26;;;;;;;6.72;3.28;;;;;;;17.53;86.39;99920.06;5074013;28;20063;-64
2023/06/08 00:44:52;;;;;;;5.53;3.40;;;;;;;17.64;85.08;99907.94;5074816;28;20044;-64
2023/06/08 00:47:18;;;;;;;5.10;3.17;;;;;;;17.76;84.12;99907.19;5074698;28;20032;-64
2023/06/08 00:49:45;;;;;;;5.70;3.50;;;;;;;17.87;82.97;99911.09;5074722;28;20036;-64
2023/06/08 00:52:10;;;;;;;4.90;3.08;;;;;;;17.89;82.77;99911.72;5074778;28;20107;-64
2023/06/08 00:54:39;;;;;;;4.63;3.20;;;;;;;17.89;82.83;99901.00;5075074;28;20083;-64
2023/06/08 00:57:06;;;;;;;7.38;3.38;;;;;;;17.94;82.03;99903.06;5074898;28;20036;-64
2023/06/08 00:59:32;;;;;;;3.92;3.50;;;;;;;17.87;81.94;99897.72;5075027;28;20047;-64
2023/06/08 01:01:58;;;;;;;5.55;3.25;;;;;;;17.88;82.48;99901.22;5075665;28;20248;-64
2023/06/08 01:04:25;;;;;;;4.85;3.40;;;;;;;17.90;82.41;99901.84;5075137;28;20097;-64
2023/06/08 01:07:02;;;;;;;3.88;3.17;;;;;;;17.99;82.13;99904.09;5073452;28;20040;-64
2023/06/08 01:09:36;;;;;;;4.88;3.50;;;;;;;18.05;81.48;99899.78;5070229;28;20032;-64
2023/06/08 01:12:17;;;;;;;5.05;3.13;;;;;;;18.09;81.28;99895.66;5074401;28;20253;-64
2023/06/08 01:15:21;;;;;;;4.10;3.58;;;;;;;18.15;80.75;99902.88;5074998;28;20156;-64
2023/06/08 01:17:57;;;;;;;;;;;;;;;18.17;80.19;99901.63;5030737;28;20056;-64
2023/06/08 01:20:29;;;;;;;6.72;3.58;;;;;;;18.14;79.99;99899.34;5074542;28;20198;-64
2023/06/08 01:23:09;;;;;;;4.18;3.50;;;;;;;18.09;80.02;99896.47;5074047;28;20070;-64
2023/06/08 01:25:36;;;;;;;4.68;3.63;;;;;;;18.09;80.38;99896.47;5074402;28;20058;-64
2023/06/08 01:28:13;;;;;;;6.03;4.20;;;;;;;18.13;80.31;99895.03;5074417;28;20040;-64
2023/06/08 01:30:48;;;;;;;5.35;3.45;;;;;;;18.19;80.11;99904.09;5074687;28;20047;-64
2023/06/08 01:33:23;;;;;;;5.78;4.03;;;;;;;18.20;79.70;99897.72;5070497;28;20333;-64
2023/06/08 01:36:13;;;;;;;6.72;3.83;;;;;;;18.18;78.26;99895.22;5074471;28;20051;-64
2023/06/08 01:38:48;;;;;;;5.32;4.03;;;;;;;18.08;78.92;99897.50;5071045;28;20072;-64
2023/06/08 01:41:23;;;;;;;7.82;4.10;;;;;;;18.07;79.32;99895.84;5076641;28;20093;-64
2023/06/08 01:43:51;;;;;;;4.70;3.67;;;;;;;18.12;78.97;99904.09;5074689;28;20044;-64
2023/06/08 01:46:20;;;;;;;4.88;3.70;;;;;;;18.14;78.63;99906.56;5073574;28;20039;-64
2023/06/08 01:48:48;;;;;;;4.90;4.10;;;;;;;18.10;78.34;99908.03;5072980;28;20052;-64
2023/06/08 01:51:14;;;;;;;4.05;3.53;;;;;;;18.10;77.57;99900.81;5072622;28;20041;-64
2023/06/08 01:53:41;;;;;;;6.22;3.33;;;;;;;18.10;77.75;99911.53;5073185;28;20042;-64
2023/06/08 01:56:06;;;;;;;5.28;3.88;;;;;;;18.09;77.28;99904.50;5073247;28;20361;-64
2023/06/08 01:58:32;;;;;;;6.97;4.18;;;;;;;18.09;77.03;99909.88;5073189;28;20059;-64
2023/06/08 02:00:57;;;;;;;4.60;3.60;;;;;;;18.08;77.20;99910.91;5073042;28;20127;-64
2023/06/08 02:03:23;;;;;;;5.13;3.30;;;;;;;18.08;76.35;99912.75;5072528;28;20044;-64
2023/06/08 02:05:49;;;;;;;7.38;4.00;;;;;;;17.97;77.94;99913.38;5075150;28;20039;-64
2023/06/08 02:08:14;;;;;;;6.70;4.22;;;;;;;17.92;79.07;99911.31;5074722;28;20105;-64
2023/06/08 02:10:40;;;;;;;6.68;3.67;;;;;;;17.81;79.32;99915.44;5072681;28;20051;-64
2023/06/08 02:13:05;;;;;;;7.13;4.07;;;;;;;17.62;80.17;99902.78;5073169;28;20318;-64
2023/06/08 02:15:31;;;;;;;7.55;5.18;;;;;;;17.49;79.80;99900.09;5073327;28;20229;-64
2023/06/08 02:17:59;;;;;;;5.63;4.00;;;;;;;17.53;79.28;99907.50;5072732;28;20036;-64
2023/06/08 02:20:25;;;;;;;8.23;3.95;;;;;;;17.56;78.57;99908.94;5073468;28;20039;-64
2023/06/08 02:22:51;;;;;;;6.88;4.35;;;;;;;17.57;79.56;99910.59;5074206;28;20037;-64
2023/06/08 02:25:16;;;;;;;6.30;4.15;;;;;;;17.57;78.71;99907.91;5072445;28;20219;-64
2023/06/08 02:27:43;;;;;;;7.93;4.20;;;;;;;17.58;78.01;99909.56;5075589;28;20044;-64
2023/06/08 02:30:10;;;;;;;5.10;4.10;;;;;;;17.35;78.17;99901.06;5075492;28;20357;-63
2023/06/08 02:32:36;;;;;;;8.40;4.88;;;;;;;17.33;80.51;99897.78;5077713;28;20113;-63
2023/06/08 02:35:04;;;;;;;7.22;5.40;;;;;;;17.37;81.19;99891.81;5076423;28;20115;-63
2023/06/08 02:37:30;;;;;;;6.80;4.95;;;;;;;17.33;80.51;99903.97;5077572;28;20039;-63
2023/06/08 02:39:56;;;;;;;7.15;4.78;;;;;;;17.35;80.61;99896.56;5077454;28;20119;-64
2023/06/08 02:42:22;;;;;;;5.85;3.97;;;;;;;17.21;78.40;99906.38;5077863;28;20029;-63
2023/06/08 02:44:47;;;;;;;7.53;4.95;;;;;;;17.29;79.43;99907.25;5077602;28;20033;-64
2023/06/08 02:47:14;;;;;;;6.85;4.57;;;;;;;17.11;80.13;99902.44;5076107;28;20110;-63
2023/06/08 02:49:40;;;;;;;5.30;4.68;;;;;;;17.20;79.86;99907.41;5077675;28;20032;-63
2023/06/08 02:52:05;;;;;;;8.68;5.10;;;;;;;17.23;79.28;99907.00;5077686;28;20059;-63
2023/06/08 02:54:31;;;;;;;7.53;5.10;;;;;;;17.21;79.82;99908.25;5077410;28;20046;-64
2023/06/08 02:56:56;;;;;;;6.65;5.10;;;;;;;17.24;79.56;99905.16;5077111;28;20047;-63
2023/06/08 02:59:22;;;;;;;8.23;4.85;;;;;;;17.26;79.39;99903.13;5076133;28;20356;-63
2023/06/08 03:01:53;;;;;;;10.60;6.07;;;;;;;17.24;79.53;99900.63;5078201;28;20304;-63
2023/06/08 03:04:23;;;;;;;5.97;4.53;;;;;;;17.22;78.79;99899.19;5076804;28;20230;-64
2023/06/08 03:06:54;;;;;;;6.18;5.13;;;;;;;17.22;78.54;99904.53;5077789;28;20056;-63
2023/06/08 03:09:29;;;;;;;8.57;5.43;;;;;;;17.11;79.62;99908.63;5079312;28;20033;-63
2023/06/08 03:11:59;;;;;;;8.73;5.55;;;;;;;17.12;78.97;99912.94;5078129;28;20048;-64
2023/06/08 03:14:29;;;;;;;7.90;4.97;;;;;;;17.03;79.19;99913.31;5076815;28;20032;-63
2023/06/08 03:16:57;;;;;;;8.98;5.20;;;;;;;17.06;79.28;99916.44;5076579;28;20108;-63
2023/06/08 03:19:25;;;;;;;7.65;5.22;;;;;;;17.09;79.62;99913.34;5058083;28;20278;-63
2023/06/08 03:21:50;;;;;;;9.70;5.40;;;;;;;17.06;80.22;99912.91;5076468;28;20051;-63
2023/06/08 03:24:16;;;;;;;10.50;5.43;;;;;;;17.04;81.17;99913.13;5075516;28;20040;-64
2023/06/08 03:26:41;;;;;;;7.72;5.03;;;;;;;17.07;81.66;99926.09;5076584;28;20052;-63
2023/06/08 03:29:07;;;;;;;7.00;5.47;;;;;;;17.02;82.46;99911.66;5072184;28;20028;-63
2023/06/08 03:31:36;;;;;;;8.52;5.07;;;;;;;16.92;83.38;99915.53;5078037;28;20089;-64
2023/06/08 03:34:04;;;;;;;8.95;5.35;;;;;;;16.82;84.50;99920.44;5079229;28;20032;-64
2023/06/08 03:36:33;;;;;;;7.78;5.60;;;;;;;16.99;83.87;99923.59;5077049;28;20291;-63
2023/06/08 03:39:01;;;;;;;8.40;5.82;;;;;;;17.09;84.43;99916.03;5078190;28;20099;-63
2023/06/08 03:41:27;;;;;;;10.15;7.32;;;;;;;17.15;84.03;99914.41;5076574;28;20068;-63
2023/06/08 03:43:52;;;;;;;10.25;7.47;;;;;;;17.21;83.85;99916.28;5074397;28;20052;-63
2023/06/08 03:46:18;;;;;;;9.65;7.05;;;;;;;17.23;84.45;99917.72;5076167;28;20039;-64
2023/06/08 03:48:43;;;;;;;8.90;6.72;;;;;;;17.32;83.84;99921.03;5075910;28;20040;-63
2023/06/08 03:51:08;;;;;;;8.10;6.43;;;;;;;17.37;84.14;99921.25;5077083;28;20317;-63
2023/06/08 03:53:34;;;;;;;8.65;5.75;;;;;;;17.44;84.58;99930.13;5076137;28;20353;-64
2023/06/08 03:56:00;;;;;;;8.18;5.68;;;;;;;17.54;84.82;99930.56;5076649;28;20237;-63
2023/06/08 03:58:25;;;;;;;6.43;5.13;;;;;;;17.58;84.49;99928.31;5075750;28;20102;-63
2023/06/08 04:00:51;;;;;;;8.05;5.85;;;;;;;17.68;84.55;99931.44;5075417;28;20211;-63
2023/06/08 04:03:16;;;;;;;7.45;5.22;;;;;;;17.68;82.16;99926.09;5076443;28;20028;-63
2023/06/08 04:05:42;;;;;;;8.68;5.72;;;;;;;17.64;82.26;99935.53;5076503;28;20047;-63
2023/06/08 04:08:07;;;;;;;7.13;5.75;;;;;;;17.63;84.74;99933.06;5075637;28;20051;-64
2023/06/08 04:10:33;;;;;;;9.13;5.53;;;;;;;17.55;85.54;99929.53;5075887;28;20040;-63
2023/06/08 04:12:58;;;;;;;9.60;6.38;;;;;;;17.67;85.63;99937.00;5076796;28;20249;-63
2023/06/08 04:15:25;;;;;;;9.82;5.60;;;;;;;17.61;85.62;99935.94;5077380;28;20040;-63
2023/06/08 04:17:51;;;;;;;6.85;5.10;;;;;;;17.75;85.00;99931.50;5074286;28;20039;-63
2023/06/08 04:20:16;;;;;;;5.13;4.63;;;;;;;17.81;83.44;99933.34;5075576;28;20044;-64
2023/06/08 04:22:42;;;;;;;5.97;5.20;;;;;;;17.81;84.65;99930.69;5075966;28;20032;-63
2023/06/08 04:25:08;;;;;;;10.63;5.10;;;;;;;18.05;84.07;99932.75;5074255;28;20062;-63
2023/06/08 04:27:34;;;;;;;6.32;5.00;;;;;;;18.02;83.29;99935.84;5076190;28;20024;-63
2023/06/08 04:30:00;;;;;;;7.85;5.75;;;;;;;18.01;83.65;99936.88;5077125;28;20238;-63
2023/06/08 04:32:26;;;;;;;7.68;5.28;;;;;;;18.09;84.51;99938.53;5076193;28;20099;-63
2023/06/08 04:34:51;;;;;;;7.72;5.50;;;;;;;18.12;84.69;99938.13;5074238;28;20032;-63
2023/06/08 04:37:17;;;;;;;8.43;5.20;;;;;;;18.10;84.19;99937.50;5074708;28;20103;-63
2023/06/08 04:39:42;;;;;;;8.75;5.32;;;;;;;18.10;84.34;99941.00;5075116;28;20052;-64
2023/06/08 04:42:08;;;;;;;7.25;5.47;;;;;;;18.36;83.35;99936.66;5077443;28;20040;-63
2023/06/08 04:44:34;;;;;;;8.45;5.22;;;;;;;18.53;82.54;99943.22;5077268;28;20233;-63
2023/06/08 04:47:01;;;;;;;7.55;6.22;;;;;;;18.66;80.91;99942.41;5074965;28;20043;-64
2023/06/08 04:49:31;;;;;;;9.48;6.38;;;;;;;18.78;79.92;99938.91;5073031;28;20043;-64
2023/06/08 04:51:59;;;;;;;8.02;5.93;;;;;;;18.96;80.16;99940.91;5074005;28;20040;-64
2023/06/08 04:54:26;;;;;;;7.90;5.75;;;;;;;19.20;77.79;99939.38;5074724;28;20036;-64
2023/06/08 04:56:58;;;;;;;8.52;5.40;;;;;;;19.40;77.75;99941.97;5075182;28;20041;-64
2023/06/08 04:59:27;;;;;;;8.65;4.90;;;;;;;19.33;76.89;99946.56;5073813;28;20333;-64
2023/06/08 05:01:54;;;;;;;6.50;5.38;;;;;;;19.31;77.06;99932.50;5074390;28;20265;-63
2023/06/08 05:04:19;;;;;;;7.13;5.18;;;;;;;19.35;76.86;99939.94;5056801;28;20258;-64
2023/06/08 05:06:45;;;;;;;6.47;5.07;;;;;;;19.63;75.91;99949.50;5074740;28;20029;-64
2023/06/08 05:09:12;;;;;;;6.63;4.78;;;;;;;19.82;75.45;99945.91;5074794;28;20024;-64
2023/06/08 05:11:38;;;;;;;7.60;5.05;;;;;;;20.12;73.69;99943.41;5074986;28;20387;-64
2023/06/08 05:14:03;;;;;;;6.78;4.70;;;;;;;20.30;73.88;99953.41;5074192;28;20028;-64
2023/06/08 05:16:29;;;;;;;8.15;5.45;;;;;;;20.55;72.55;99953.41;5074923;28;20090;-64
2023/06/08 05:18:54;;;;;;;6.53;4.82;;;;;;;20.65;72.11;99953.72;5074701;28;20082;-64
2023/06/08 05:21:20;;;;;;;6.97;4.93;;;;;;;20.72;71.36;99958.00;5074202;28;20113;-64
2023/06/08 05:23:45;;;;;;;9.32;4.43;;;;;;;20.97;69.88;99957.13;5073131;28;20036;-64
2023/06/08 05:26:11;;;;;;;7.63;4.70;;;;;;;20.99;68.12;99961.25;5073716;28;20037;-63
2023/06/08 05:28:37;;;;;;;6.50;4.10;;;;;;;21.01;68.29;99958.31;5074027;28;20032;-64
2023/06/08 05:31:02;;;;;;;6.18;4.72;;;;;;;21.19;68.79;99961.00;5073617;28;20079;-64
2023/06/08 05:33:28;;;;;;;5.30;4.47;;;;;;;21.50;67.19;99954.63;5074522;28;20032;-64
2023/06/08 05:35:53;;;;;;;6.38;4.25;;;;;;;21.61;64.77;99955.72;5074543;28;20043;-64
2023/06/08 05:38:22;;;;;;;4.55;3.88;;;;;;;21.63;64.16;99954.44;5072742;28;20044;-64
2023/06/08 05:40:47;;;;;;;5.78;3.95;;;;;;;21.73;64.32;99955.75;5073756;28;20044;-64
2023/06/08 05:43:13;;;;;;;6.97;3.97;;;;;;;21.86;63.49;99952.91;5069852;28;20053;-64
2023/06/08 05:45:38;;;;;;;6.03;5.20;;;;;;;21.54;64.00;99955.81;5074997;28;20131;-64
2023/06/08 05:48:05;;;;;;;5.22;4.15;;;;;;;21.20;64.96;99951.06;5074921;28;20043;-64
2023/06/08 05:50:30;;;;;;;5.20;4.70;;;;;;;21.54;64.93;99955.00;5076904;28;20051;-64
2023/06/08 05:52:56;;;;;;;5.25;4.75;;;;;;;21.48;64.54;99961.28;5074141;28;20036;-64
2023/06/08 05:55:22;;;;;;;10.73;4.75;;;;;;;21.70;65.96;99953.53;5076392;28;20071;-64
2023/06/08 05:57:47;;;;;;;5.60;4.80;;;;;;;21.45;65.86;99956.38;5074879;28;20036;-64
2023/06/08 06:00:13;;;;;;;5.88;4.65;;;;;;;21.26;66.01;99956.41;5073448;28;20048;-64
2023/06/08 06:02:40;;;;;;;6.35;5.35;;;;;;;21.46;67.14;99958.00;5073815;28;20244;-64
2023/06/08 06:05:08;;;;;;;8.20;5.25;;;;;;;21.57;65.99;99949.97;5073511;28;20350;-64
2023/06/08 06:07:34;;;;;;;6.15;4.63;;;;;;;21.86;65.35;99950.22;5076421;28;20098;-64
2023/06/08 06:09:59;;;;;;;7.93;5.40;;;;;;;21.99;63.11;99952.69;5077396;28;20257;-64
2023/06/08 06:12:25;;;;;;;8.02;5.10;;;;;;;22.16;62.22;99948.31;5077755;28;20067;-64
2023/06/08 06:14:52;;;;;;;8.43;5.43;;;;;;;22.31;61.43;99947.84;5059820;28;20059;-64
2023/06/08 06:17:18;;;;;;;7.40;4.68;;;;;;;22.61;60.81;99940.44;5078371;28;20032;-64
2023/06/08 06:19:43;;;;;;;7.57;4.85;;;;;;;22.74;61.21;99942.09;5076807;28;20056;-64
2023/06/08 06:22:10;;;;;;;6.50;5.07;;;;;;;22.10;62.41;99933.06;5077854;28;20183;-64
2023/06/08 06:24:36;;;;;;;8.73;5.70;;;;;;;22.27;61.24;99943.97;5074044;28;20029;-64
2023/06/08 06:27:03;;;;;;;5.93;4.88;;;;;;;22.30;60.90;99936.25;5077866;28;20040;-64
2023/06/08 06:29:29;;;;;;;6.43;4.88;;;;;;;22.81;58.81;99937.41;5076194;28;20040;-64
2023/06/08 06:31:55;;;;;;;6.88;5.13;;;;;;;23.07;58.89;99938.78;5077996;28;20041;-64
2023/06/08 06:34:20;;;;;;;8.57;5.18;;;;;;;23.12;58.30;99936.19;5077822;28;20338;-64
2023/06/08 06:36:46;;;;;;;6.25;4.65;;;;;;;23.33;56.32;99932.03;5077269;28;20044;-64
2023/06/08 06:39:12;;;;;;;6.68;4.97;;;;;;;23.44;55.08;99920.34;5076938;28;20318;-64
2023/06/08 06:41:41;;;;;;;7.55;5.25;;;;;;;23.56;56.03;99926.53;5077280;28;20052;-64
2023/06/08 06:44:08;;;;;;;6.25;4.88;;;;;;;23.87;54.21;99913.56;5075694;28;20036;-64
2023/06/08 06:46:33;;;;;;;7.45;4.70;;;;;;;24.23;53.27;99919.56;5076789;28;20044;-64
2023/06/08 06:48:59;;;;;;;6.47;4.65;;;;;;;24.27;52.49;99915.34;5076681;28;20226;-64
2023/06/08 06:51:25;;;;;;;6.03;4.15;;;;;;;24.19;51.31;99917.38;5077284;28;20151;-64
2023/06/08 06:53:51;;;;;;;7.07;4.65;;;;;;;24.33;51.74;99917.06;5079620;28;20264;-64
2023/06/08 06:56:16;;;;;;;4.53;4.13;;;;;;;24.64;49.32;99904.78;5080913;28;20043;-64
2023/06/08 06:58:45;;;;;;;5.47;4.13;;;;;;;24.97;47.21;99910.16;5081003;28;20029;-64
2023/06/08 07:01:15;;;;;;;6.70;4.70;;;;;;;25.06;49.61;99913.22;5080908;28;20377;-64
2023/06/08 07:03:46;;;;;;;5.93;4.50;;;;;;;25.10;48.67;99911.66;5067375;28;20028;-64
2023/06/08 07:06:12;;;;;;;7.13;4.60;;;;;;;25.36;47.28;99901.91;5080727;28;20055;-64
2023/06/08 07:08:39;;;;;;;5.32;4.50;;;;;;;25.67;48.22;99900.34;5080273;28;20042;-64
2023/06/08 07:11:05;;;;;;;8.00;4.47;;;;;;;25.90;47.00;99901.91;5080638;28;20048;-64
2023/06/08 07:13:31;;;;;;;5.03;4.20;;;;;;;26.02;46.03;99899.88;5080361;28;20074;-64
2023/06/08 07:15:57;;;;;;;6.78;4.53;;;;;;;25.96;46.24;99901.69;5080511;28;20107;-63
2023/06/08 07:18:22;;;;;;;6.97;5.03;;;;;;;24.98;48.55;99902.84;5080622;28;20029;-64
2023/06/08 07:20:49;;;;;;;7.18;5.07;;;;;;;25.15;48.37;99898.16;5080418;28;20218;-64
2023/06/08 07:23:14;;;;;;;6.32;5.13;;;;;;;25.50;48.69;99896.91;5080187;28;20032;-64
2023/06/08 07:25:40;;;;;;;4.03;3.40;;;;;;;24.96;47.52;99894.06;5080361;28;20234;-65
2023/06/08 07:28:08;;;;;;;5.93;4.07;;;;;;;24.83;48.98;99896.09;5080536;28;20033;-66
2023/06/08 07:30:33;;;;;;;7.00;4.00;;;;;;;25.07;49.67;99895.91;5080194;28;20025;-64
2023/06/08 07:33:00;;;;;;;5.60;4.35;;;;;;;25.34;48.26;99880.47;5080016;28;20097;-65
2023/06/08 07:35:26;;;;;;;4.55;3.58;;;;;;;25.43;47.67;99894.41;5080438;28;20113;-65
2023/06/08 07:37:54;;;;;;;6.93;4.03;;;;;;;24.77;48.79;99894.41;5079544;28;20342;-65
2023/06/08 07:40:20;;;;;;;4.63;3.80;;;;;;;24.73;50.02;99890.56;5080092;28;20461;-64
2023/06/08 07:42:46;;;;;;;4.47;4.07;;;;;;;24.82;50.64;99883.63;5080124;28;20045;-65
2023/06/08 07:45:12;;;;;;;3.63;2.47;;;;;;;25.24;44.17;99879.56;5079459;28;20095;-65
2023/06/08 07:47:39;;;;;;;7.88;3.78;;;;;;;25.33;48.82;99876.13;5078437;28;20036;-64
2023/06/08 07:50:06;;;;;;;4.07;2.95;;;;;;;25.60;46.08;99870.69;5078719;28;20028;-65
2023/06/08 07:52:32;;;;;;;5.45;3.30;;;;;;;25.41;44.83;99872.16;5077157;28;20046;-65
2023/06/08 07:54:58;;;;;;;8.27;3.70;;;;;;;25.99;43.62;99865.91;5075621;28;20032;-64
2023/06/08 07:57:23;;;;;;;3.08;2.70;;;;;;;26.02;42.73;99868.13;5078155;28;20421;-65
2023/06/08 07:59:49;;;;;;;3.58;2.75;;;;;;;26.15;42.60;99871.47;5078198;28;20040;-64
2023/06/08 08:02:14;;;;;;;6.32;3.30;;;;;;;25.62;45.50;99868.56;5075813;28;20037;-64
2023/06/08 08:04:40;;;;;;;4.47;2.72;;;;;;;25.24;46.53;99866.00;5075608;28;20082;-64
2023/06/08 08:07:06;;;;;;;4.45;2.95;;;;;;;24.89;45.27;99861.78;5074360;28;20221;-64
2023/06/08 08:09:32;;;;;;;3.38;2.85;;;;;;;25.00;45.52;99869.00;5075579;28;20210;-64
2023/06/08 08:11:57;;;;;;;4.28;2.83;;;;;;;25.12;45.59;99871.56;5075717;28;20131;-64
2023/06/08 08:14:22;;;;;;;4.55;3.55;;;;;;;24.91;46.42;99865.03;5078347;28;20048;-65
2023/06/08 08:16:48;;;;;;;4.28;2.63;;;;;;;25.24;46.56;99857.88;5077169;28;20044;-65
2023/06/08 08:19:15;;;;;;;4.43;3.30;;;;;;;25.32;48.53;99860.94;5075717;28;20350;-64
2023/06/08 08:21:41;;;;;;;5.47;3.13;;;;;;;25.43;47.28;99851.84;5075270;28;20395;-64
2023/06/08 08:24:06;;;;;;;4.45;2.80;;;;;;;25.45;46.85;99857.81;5077743;28;20052;-64
2023/06/08 08:26:32;;;;;;;3.88;2.78;;;;;;;25.03;47.89;99860.38;5076465;28;20318;-64
2023/06/08 08:28:58;;;;;;;5.07;2.83;;;;;;;24.97;49.58;99860.50;5076814;28;20040;-64
2023/06/08 08:31:24;;;;;;;4.70;3.20;;;;;;;24.61;49.83;99854.66;5078081;28;20052;-64
2023/06/08 08:33:50;;;;;;;5.18;3.22;;;;;;;25.09;50.75;99864.78;5074867;28;20074;-64
2023/06/08 08:36:16;;;;;;;4.55;2.90;;;;;;;24.53;51.58;99852.38;5073678;28;20036;-64
2023/06/08 08:38:43;;;;;;;3.90;2.75;;;;;;;24.75;51.77;99846.97;5074943;28;20337;-64
2023/06/08 08:41:12;;;;;;;6.68;3.00;;;;;;;25.00;49.23;99850.03;5075717;28;20449;-64
2023/06/08 08:43:56;;;;;;;4.40;3.08;;;;;;;24.94;49.74;99853.69;5075631;28;20231;-64
2023/06/08 08:46:23;;;;;;;6.05;3.38;;;;;;;24.36;53.68;99852.44;5074578;28;20037;-64
2023/06/08 08:48:53;;;;;;;4.00;3.17;;;;;;;24.63;52.43;99846.28;5070883;28;20037;-64
2023/06/08 08:51:19;;;;;;;5.85;3.35;;;;;;;24.84;52.57;99843.56;5075750;28;20032;-64
2023/06/08 08:53:49;;;;;;;3.53;2.75;;;;;;;24.75;53.01;99847.78;5074797;28;20029;-64
2023/06/08 08:56:21;;;;;;;3.45;2.85;;;;;;;24.38;53.92;99844.06;5073888;28;20036;-64
2023/06/08 08:58:50;;;;;;;3.65;2.72;;;;;;;24.71;52.52;99851.25;5074484;28;20143;-64
2023/06/08 09:01:19;;;;;;;6.07;3.38;;;;;;;24.43;52.25;99847.66;5077198;28;20040;-65
2023/06/08 09:03:46;;;;;;;5.53;2.72;;;;;;;24.62;52.92;99844.66;5075763;28;20055;-65
2023/06/08 09:06:11;;;;;;;3.63;2.85;;;;;;;24.76;52.59;99840.50;5074468;28;20364;-64
2023/06/08 09:08:37;;;;;;;5.03;2.97;;;;;;;24.91;51.25;99837.97;5074820;28;20044;-64
2023/06/08 09:11:04;;;;;;;5.60;3.33;;;;;;;24.97;53.74;99833.41;5075627;28;20044;-64
2023/06/08 09:13:34;;;;;;;3.85;3.05;;;;;;;25.16;50.53;99818.50;5077225;28;20041;-64
2023/06/08 09:16:17;;;;;;;4.20;3.20;;;;;;;25.35;51.53;99827.09;5075236;28;20349;-64
2023/06/08 09:18:44;;;;;;;4.10;2.53;;;;;;;25.34;50.30;99815.44;5072348;28;20037;-64
2023/06/08 09:21:24;;;;;;;4.07;2.70;;;;;;;25.38;50.47;99821.97;5073555;28;20040;-64
2023/06/08 09:24:14;;;;;;;2.90;2.60;;;;;;;24.76;50.11;99816.13;5074624;28;20024;-64
2023/06/08 09:26:53;;;;;;;3.65;3.00;;;;;;;24.61;51.42;99810.53;5062716;28;20387;-64
2023/06/08 09:29:40;;;;;;;5.43;2.70;;;;;;;24.52;51.98;99812.84;5076689;28;20032;-64
2023/06/08 09:32:09;;;;;;;5.28;2.85;;;;;;;24.48;51.84;99817.13;5075827;28;20158;-64
2023/06/08 09:34:50;;;;;;;4.43;3.03;;;;;;;24.46;50.64;99811.97;5076467;28;20063;-64
2023/06/08 09:37:15;;;;;;;4.20;3.05;;;;;;;24.51;50.09;99806.63;5074901;28;20044;-64
2023/06/08 09:39:42;;;;;;;4.05;2.97;;;;;;;24.66;51.02;99802.47;5074149;28;20263;-64
2023/06/08 09:42:09;;;;;;;4.10;2.55;;;;;;;24.50;51.56;99799.56;5074133;28;20028;-64
2023/06/08 09:44:35;;;;;;;3.33;2.90;;;;;;;24.60;51.38;99801.56;5073987;28;20024;-64
2023/06/08 09:47:25;;;;;;;4.03;2.78;;;;;;;24.60;49.82;99800.75;5076300;28;20246;-64
2023/06/08 09:49:55;;;;;;;5.85;2.75;;;;;;;24.25;49.17;99799.22;5075139;28;20077;-63
2023/06/08 09:52:23;;;;;;;3.67;2.83;;;;;;;24.44;49.96;99799.75;5075245;28;20070;-64
2023/06/08 09:54:51;;;;;;;7.53;2.83;;;;;;;24.41;50.09;99787.53;5073542;28;20253;-64
2023/06/08 09:57:21;;;;;;;4.97;2.75;;;;;;;24.28;50.31;99793.31;5072817;28;20197;-64
2023/06/08 09:59:53;;;;;;;2.95;2.60;;;;;;;24.35;49.63;99791.25;5073386;28;20052;-64
2023/06/08 10:02:32;;;;;;;4.85;3.83;;;;;;;24.36;50.23;99789.38;5073763;28;20313;-64
2023/06/08 10:05:03;;;;;;;3.30;2.38;;;;;;;24.58;48.40;99789.38;5073130;28;20235;-64
2023/06/08 10:07:35;;;;;;;4.72;2.80;;;;;;;24.42;50.76;99785.66;5076274;28;20353;-64
2023/06/08 10:10:36;;;;;;;3.95;2.63;;;;;;;24.55;49.36;99787.16;5075381;28;20082;-64
2023/06/08 10:13:02;;;;;;;6.15;2.90;;;;;;;24.42;48.05;99781.06;5069448;28;20052;-64
2023/06/08 10:15:28;;;;;;;3.55;2.53;;;;;;;24.28;46.55;99778.97;5073850;28;20036;-64
2023/06/08 10:17:56;;;;;;;2.65;2.20;;;;;;;24.56;47.91;99772.56;5073611;28;20082;-64
2023/06/08 10:20:21;;;;;;;5.18;2.50;;;;;;;24.67;48.49;99769.72;5073135;28;20040;-64
2023/06/08 10:22:48;;;;;;;2.70;2.42;;;;;;;24.52;48.60;99770.34;5072714;28;20079;-64
2023/06/08 10:25:16;;;;;;;3.83;3.17;;;;;;;24.59;48.19;99753.91;5073164;28;20237;-64
2023/06/08 10:27:49;;;;;;;5.35;2.85;;;;;;;24.67;51.08;99756.19;5073532;28;20036;-64
2023/06/08 10:30:30;;;;;;;4.38;2.55;;;;;;;24.48;47.37;99749.47;5073197;28;20254;-64
2023/06/08 10:33:15;;;;;;;3.05;2.70;;;;;;;24.47;50.95;99753.22;5071131;28;20036;-64
2023/06/08 10:35:41;;;;;;;3.00;2.60;;;;;;;24.42;48.73;99747.75;5073903;28;20290;-64
2023/06/08 10:38:12;;;;;;;4.78;3.20;;;;;;;24.53;48.66;99735.97;5075595;28;20036;-64
2023/06/08 10:40:45;;;;;;;5.07;2.60;;;;;;;24.62;49.19;99733.66;5075222;28;20051;-64
2023/06/08 10:43:11;;;;;;;4.55;2.58;;;;;;;24.69;47.57;99718.84;5073338;28;20056;-64
2023/06/08 10:45:39;;;;;;;9.15;2.70;;;;;;;24.77;46.74;99729.22;5073632;28;20260;-63
2023/06/08 10:48:09;;;;;;;6.85;2.30;;;;;;;24.87;43.61;99723.06;5072646;28;20043;-63
2023/06/08 10:50:39;;;;;;;4.60;2.55;;;;;;;24.86;45.13;99716.03;5072387;28;20395;-63
2023/06/08 10:53:05;;;;;;;3.45;2.72;;;;;;;24.90;46.76;99719.84;5075038;28;20032;-63
2023/06/08 10:55:31;;;;;;;3.47;2.35;;;;;;;24.95;44.98;99706.34;5076984;28;20089;-63
2023/06/08 10:58:19;;;;;;;4.18;3.00;;;;;;;25.08;46.30;99699.75;5076788;28;20056;-63
2023/06/08 11:00:49;;;;;;;3.40;2.60;;;;;;;25.00;46.08;99694.81;5076805;28;20328;-63
2023/06/08 11:03:19;;;;;;;3.47;2.28;;;;;;;24.87;48.03;99692.47;5077410;28;20329;-63
2023/06/08 11:05:53;;;;;;;53.08;7.55;;;;;;;24.92;50.52;99695.22;5079769;28;20126;-63
2023/06/08 11:08:19;;;;;;;3.13;2.47;;;;;;;25.01;48.60;99688.31;5076142;28;20048;-64
2023/06/08 11:10:52;;;;;;;4.00;3.10;;;;;;;24.87;51.16;99685.16;5076728;28;20112;-64
2023/06/08 11:13:17;;;;;;;4.33;2.80;;;;;;;24.86;51.21;99680.00;5076883;28;20066;-63
2023/06/08 11:15:47;;;;;;;3.30;2.20;;;;;;;24.74;51.02;99686.41;5075919;28;20041;-63
2023/06/08 11:18:13;;;;;;;19.63;4.03;;;;;;;24.92;50.87;99671.66;5076471;28;20028;-63
2023/06/08 11:20:41;;;;;;;3.35;2.35;;;;;;;24.74;50.08;99672.03;5073261;28;20052;-65
2023/06/08 11:23:11;;;;;;;88.15;10.93;;;;;;;24.78;50.11;99678.56;5079480;28;20130;-64
2023/06/08 11:25:38;;;;;;;3.15;2.50;;;;;;;24.67;50.32;99683.06;5079386;28;20298;-64
2023/06/08 11:28:04;;;;;;;3.22;2.60;;;;;;;24.81;49.03;99669.94;5077677;28;20033;-64
2023/06/08 11:30:31;;;;;;;4.53;2.70;;;;;;;24.83;48.19;99667.78;5079830;28;20281;-64
2023/06/08 11:32:57;;;;;;;4.22;2.40;;;;;;;25.00;49.15;99662.31;5077079;28;20261;-64
2023/06/08 11:35:23;;;;;;;4.93;2.80;;;;;;;25.11;49.96;99666.72;5075031;28;20365;-64
2023/06/08 11:37:55;;;;;;;3.95;2.55;;;;;;;25.05;48.56;99663.16;5076018;28;20033;-64